Time;durP1;ratioP1;P1;durP2;ratioP2;P2;SDS_P1;SDS_P2;PMS_P1;PMS_P2;Temp;Humidity;BMP_temperature;BMP_pressure;BME280_temperature;BME280_humidity;BME280_pressure;Samples;Min_cycle;Max_cycle;Signal;HPM_P1;HPM_P2
2022/04/18 00:02:33;;;;;;;2.90;1.77;;;;;;;7.44;47.16;100235.53;12202150;19;20006;-79
2022/04/18 00:06:36;;;;;;;4.05;1.73;;;;;;;7.45;47.27;100234.47;12205449;19;20003;-82
2022/04/18 00:10:37;;;;;;;2.80;1.75;;;;;;;7.50;47.17;100231.94;12219034;19;20027;-81
2022/04/18 00:14:39;;;;;;;4.25;1.90;;;;;;;7.46;47.71;100225.19;12180526;19;20017;-80
2022/04/18 00:18:41;;;;;;;1.98;1.63;;;;;;;7.41;47.80;100214.06;12212760;19;20010;-80
2022/04/18 00:22:44;;;;;;;3.08;1.90;;;;;;;7.44;47.83;100217.19;12216326;19;20020;-82
2022/04/18 00:26:47;;;;;;;5.72;2.60;;;;;;;7.46;47.78;100208.72;12186474;19;20014;-81
2022/04/18 00:30:49;;;;;;;5.57;2.60;;;;;;;7.47;47.73;100203.03;12204009;19;20007;-81
2022/04/18 00:34:50;;;;;;;3.20;2.03;;;;;;;7.53;47.59;100202.16;12208612;19;20093;-81
2022/04/18 00:38:52;;;;;;;4.53;1.55;;;;;;;7.61;46.65;100198.28;12194393;19;20015;-82
2022/04/18 00:43:04;;;;;;;6.50;2.17;;;;;;;7.57;47.85;100191.56;12203835;19;20979;-80
2022/04/18 00:47:06;;;;;;;3.03;1.73;;;;;;;7.61;47.55;100192.81;12219034;19;20010;-80
2022/04/18 00:51:12;;;;;;;2.53;1.73;;;;;;;7.69;46.91;100191.72;12191829;19;20010;-81
2022/04/18 00:55:14;;;;;;;3.28;1.88;;;;;;;7.67;47.19;100182.84;12213395;19;20014;-81
2022/04/18 00:59:15;;;;;;;3.70;1.67;;;;;;;7.74;46.66;100183.66;12213216;19;20107;-80
2022/04/18 01:03:19;;;;;;;3.90;2.10;;;;;;;7.73;46.78;100176.47;12178073;19;20002;-81
2022/04/18 01:07:21;;;;;;;2.65;1.75;;;;;;;7.82;46.67;100168.81;12205864;19;20050;-80
2022/04/18 01:11:23;;;;;;;3.03;1.80;;;;;;;7.79;46.47;100164.63;12193178;19;20018;-81
2022/04/18 01:15:43;;;;;;;3.80;1.83;;;;;;;7.73;47.04;100166.38;12215263;19;20029;-79
2022/04/18 01:20:07;;;;;;;6.45;2.17;;;;;;;7.71;46.69;100156.69;12223252;19;20014;-81
2022/04/18 01:28:58;;;;;;;4.32;1.90;;;;;;;7.62;47.21;100147.88;12222641;19;20015;-82
2022/04/18 01:33:01;;;;;;;4.35;2.50;;;;;;;7.60;47.21;100152.75;12183653;19;20098;-82
2022/04/18 01:37:03;;;;;;;3.63;1.67;;;;;;;7.63;47.09;100144.06;12201582;19;20006;-81
2022/04/18 01:41:05;;;;;;;3.63;1.50;;;;;;;7.62;47.23;100136.09;12207453;19;20011;-81
2022/04/18 01:45:07;;;;;;;6.47;1.90;;;;;;;7.65;47.23;100136.47;12183739;19;20021;-80
2022/04/18 01:49:09;;;;;;;5.43;1.98;;;;;;;7.63;47.14;100138.59;12215397;19;20011;-79
2022/04/18 01:53:12;;;;;;;4.95;2.20;;;;;;;7.60;47.43;100133.53;12210485;19;20026;-81
2022/04/18 01:57:15;;;;;;;2.60;1.80;;;;;;;7.60;47.08;100128.06;12189648;19;20126;-81
2022/04/18 02:01:17;;;;;;;3.40;1.98;;;;;;;7.56;47.09;100126.84;12217240;19;20007;-79
2022/04/18 02:05:20;;;;;;;3.25;1.75;;;;;;;7.54;47.15;100128.94;12210128;19;20021;-80
2022/04/18 02:09:22;;;;;;;7.25;2.60;;;;;;;7.48;47.48;100127.09;12181009;19;20006;-80
2022/04/18 02:13:28;;;;;;;3.83;1.75;;;;;;;7.46;47.45;100121.81;12208251;19;20007;-80
2022/04/18 02:17:31;;;;;;;4.57;2.08;;;;;;;7.45;47.59;100119.31;12185046;19;20017;-79
2022/04/18 02:21:33;;;;;;;4.28;2.10;;;;;;;7.38;47.97;100110.31;12212483;19;20066;-80
2022/04/18 02:25:35;;;;;;;4.20;2.38;;;;;;;7.24;48.63;100113.13;12206780;19;20478;-82
2022/04/18 02:29:44;;;;;;;3.85;2.30;;;;;;;7.14;48.93;100115.53;12195230;19;20082;-83
2022/04/18 02:33:45;;;;;;;4.32;1.90;;;;;;;7.08;48.26;100114.50;12218229;19;20110;-80
2022/04/18 02:37:49;;;;;;;3.67;1.95;;;;;;;7.02;48.42;100098.06;12201333;19;20010;-81
2022/04/18 02:41:54;;;;;;;4.75;2.05;;;;;;;6.99;48.57;100104.00;12169906;19;20159;-80
2022/04/18 02:45:57;;;;;;;3.88;1.80;;;;;;;6.99;48.56;100104.84;12213251;19;20018;-81
2022/04/18 02:50:03;;;;;;;5.85;1.92;;;;;;;6.91;49.07;100096.03;12213790;19;20017;-79
2022/04/18 02:54:05;;;;;;;3.92;1.70;;;;;;;6.85;49.47;100097.75;12191533;19;20512;-81
2022/04/18 02:58:10;;;;;;;2.55;1.70;;;;;;;6.81;49.51;100091.03;12203089;19;20338;-81
2022/04/18 03:02:16;;;;;;;4.88;1.92;;;;;;;6.70;50.29;100092.56;12218809;19;20010;-81
2022/04/18 03:06:19;;;;;;;3.92;2.13;;;;;;;6.63;49.64;100094.47;12194785;19;19999;-81
2022/04/18 03:11:02;;;;;;;3.97;2.30;;;;;;;6.58;49.39;100083.34;12214607;19;20003;-80
2022/04/18 03:14:46;;;;;;;5.97;1.77;;;;;;;6.51;49.90;100088.00;12181565;19;20018;-80
2022/04/18 03:18:49;;;;;;;6.35;2.10;;;;;;;6.43;50.13;100082.78;12205845;19;20018;-81
2022/04/18 03:22:50;;;;;;;3.30;2.07;;;;;;;6.37;49.91;100090.78;12214318;19;20006;-81
2022/04/18 03:27:07;;;;;;;5.10;2.05;;;;;;;6.30;50.65;100086.38;12183265;19;20014;-80
2022/04/18 03:31:12;;;;;;;6.40;1.98;;;;;;;6.22;50.30;100087.47;12222148;19;20011;-81
2022/04/18 03:35:14;;;;;;;2.57;1.47;;;;;;;6.17;50.25;100087.28;12221130;19;20019;-81
2022/04/18 03:43:38;;;;;;;3.65;2.00;;;;;;;5.92;51.91;100077.00;12207157;19;19998;-80
2022/04/18 03:47:40;;;;;;;2.97;1.90;;;;;;;5.85;51.76;100075.31;12190652;19;20010;-80
2022/04/18 03:51:42;;;;;;;4.43;2.40;;;;;;;5.78;51.92;100069.84;12222859;19;20018;-80
2022/04/18 03:55:46;;;;;;;7.78;2.97;;;;;;;5.71;52.15;100074.47;12215307;19;20458;-79
2022/04/18 04:00:04;;;;;;;4.85;2.05;;;;;;;5.65;52.94;100070.72;12205427;19;20003;-78
2022/04/18 04:04:13;;;;;;;5.22;2.20;;;;;;;5.59;52.67;100070.69;12212932;19;20022;-80
2022/04/18 04:08:18;;;;;;;2.90;1.70;;;;;;;5.48;53.10;100064.00;12216658;19;20365;-80
2022/04/18 04:12:24;;;;;;;4.95;2.05;;;;;;;5.42;53.19;100060.19;12199727;19;20003;-81
2022/04/18 04:16:55;;;;;;;3.85;2.10;;;;;;;5.35;53.37;100063.97;12207422;19;20477;-79
2022/04/18 04:20:58;;;;;;;4.90;1.70;;;;;;;5.31;53.46;100071.75;12189051;19;20006;-80
2022/04/18 04:25:00;;;;;;;4.15;2.13;;;;;;;5.30;53.50;100070.06;12208312;19;20350;-82
2022/04/18 04:29:04;;;;;;;4.65;2.10;;;;;;;5.34;53.64;100073.22;12211818;19;20336;-80
2022/04/18 04:33:24;;;;;;;5.32;2.22;;;;;;;5.30;54.03;100064.63;12195091;19;20152;-80
2022/04/18 04:37:29;;;;;;;8.13;2.00;;;;;;;5.27;54.10;100056.84;12206529;19;20018;-80
2022/04/18 04:41:47;;;;;;;5.13;1.80;;;;;;;5.31;54.40;100063.56;12189870;19;20580;-79
2022/04/18 04:45:49;;;;;;;3.88;1.98;;;;;;;5.31;54.40;100071.75;12201212;19;20051;-80
2022/04/18 04:49:59;;;;;;;3.85;2.20;;;;;;;5.28;54.47;100063.97;12210094;19;20363;-80
2022/04/18 04:54:07;;;;;;;4.95;2.03;;;;;;;5.29;54.45;100070.28;12183222;19;20031;-81
2022/04/18 04:58:13;;;;;;;3.63;1.95;;;;;;;5.31;55.11;100079.09;12200496;19;20007;-79
2022/04/18 05:02:24;;;;;;;3.85;2.15;;;;;;;5.36;54.26;100071.97;12188158;19;20014;-78
2022/04/18 05:06:27;;;;;;;4.20;2.13;;;;;;;5.37;54.57;100070.91;12220959;19;20014;-80
2022/04/18 05:10:32;;;;;;;4.43;2.38;;;;;;;5.38;55.24;100072.56;12218554;19;20010;-79
2022/04/18 05:14:41;;;;;;;3.88;2.00;;;;;;;5.40;54.63;100075.94;12184981;19;20023;-81
2022/04/18 05:18:52;;;;;;;7.00;2.10;;;;;;;5.46;54.44;100083.31;12218908;19;20011;-81
2022/04/18 05:22:54;;;;;;;4.93;2.10;;;;;;;5.54;54.30;100089.63;12207240;19;20011;-80
2022/04/18 05:26:56;;;;;;;4.82;2.60;;;;;;;5.63;54.14;100083.75;12190128;19;20006;-80
2022/04/18 05:30:58;;;;;;;4.18;1.70;;;;;;;5.81;53.06;100096.78;12205389;19;20006;-79
2022/04/18 05:35:00;;;;;;;5.63;2.40;;;;;;;5.97;53.24;100086.47;12208866;19;20011;-80
2022/04/18 05:39:02;;;;;;;5.45;2.13;;;;;;;6.00;53.63;100080.56;12186707;19;20386;-80
2022/04/18 05:43:12;;;;;;;4.72;2.38;;;;;;;6.00;54.85;100084.13;12199899;19;20361;-79
2022/04/18 05:47:14;;;;;;;2.80;1.77;;;;;;;5.96;55.22;100082.91;12202733;19;20480;-80
2022/04/18 05:51:16;;;;;;;4.22;2.20;;;;;;;6.01;54.42;100085.84;12195324;19;20002;-79
2022/04/18 05:55:23;;;;;;;6.18;1.80;;;;;;;6.08;54.29;100088.56;12199273;19;20108;-79
2022/04/18 05:59:27;;;;;;;3.05;1.92;;;;;;;6.12;54.91;100085.16;12176053;19;20031;-80
2022/04/18 06:03:37;;;;;;;2.67;1.70;;;;;;;6.18;54.62;100083.47;12201170;19;20476;-80
2022/04/18 06:07:39;;;;;;;6.25;2.10;;;;;;;6.27;54.50;100082.19;12197370;19;20006;-80
2022/04/18 06:11:59;;;;;;;4.00;1.83;;;;;;;6.49;53.75;100081.91;12184401;19;20035;-80
2022/04/18 06:16:06;;;;;;;5.47;2.00;;;;;;;6.59;53.50;100079.53;12201792;19;20021;-80
2022/04/18 06:20:08;;;;;;;3.80;2.00;;;;;;;6.76;53.30;100082.63;12205474;19;20011;-81
2022/04/18 06:24:11;;;;;;;3.40;2.03;;;;;;;6.91;52.95;100087.84;12188974;19;20029;-80
2022/04/18 06:28:20;;;;;;;5.03;2.33;;;;;;;7.08;52.60;100078.03;12208605;19;20002;-80
2022/04/18 06:32:25;;;;;;;3.55;1.90;;;;;;;7.24;52.03;100077.50;12189622;19;20479;-81
2022/04/18 06:36:30;;;;;;;3.28;1.80;;;;;;;7.47;51.40;100078.81;12197583;19;20010;-81
2022/04/18 06:40:58;;;;;;;8.35;2.28;;;;;;;7.72;50.80;100085.13;12202032;19;20463;-80
2022/04/18 06:45:01;;;;;;;5.45;2.53;;;;;;;7.93;50.93;100080.28;12176783;19;20019;-81
2022/04/18 06:49:04;;;;;;;2.63;1.75;;;;;;;8.13;50.58;100078.19;12207113;19;20015;-81
2022/04/18 06:53:25;;;;;;;4.57;2.08;;;;;;;8.39;49.41;100081.75;12191208;19;20025;-80
2022/04/18 06:57:46;;;;;;;5.70;2.22;;;;;;;8.67;48.84;100076.53;12198457;19;20099;-81
2022/04/18 07:01:48;;;;;;;6.35;2.60;;;;;;;8.88;48.65;100080.69;12213188;19;20541;-80
2022/04/18 07:05:51;;;;;;;5.47;2.13;;;;;;;9.11;48.05;100079.13;12186918;19;20010;-82
2022/04/18 07:09:52;;;;;;;3.40;1.93;;;;;;;9.38;47.31;100092.47;12199230;19;20022;-82
2022/04/18 07:13:56;;;;;;;;;;;;;;;9.59;46.26;100086.41;12187793;19;20323;-80
2022/04/18 07:17:58;;;;;;;4.13;2.17;;;;;;;9.87;46.34;100082.97;12178875;19;19919;-81
2022/04/18 07:22:02;;;;;;;5.55;2.10;;;;;;;10.10;45.09;100075.78;12208500;19;20010;-82
2022/04/18 07:26:04;;;;;;;5.65;2.20;;;;;;;10.35;45.06;100083.81;12200352;19;20007;-82
2022/04/18 07:30:09;;;;;;;5.22;2.38;;;;;;;10.58;44.91;100083.78;12182198;19;20097;-81
2022/04/18 07:34:13;;;;;;;4.25;2.53;;;;;;;10.77;43.90;100081.69;12205898;19;20015;-80
2022/04/18 07:42:36;;;;;;;6.22;2.33;;;;;;;11.24;43.80;100086.16;12187525;19;20002;-82
2022/04/18 07:46:37;;;;;;;4.25;2.30;;;;;;;11.37;43.73;100081.19;12194553;19;20170;-81
2022/04/18 07:55:08;;;;;;;5.03;2.53;;;;;;;11.57;41.74;100079.84;12184415;19;20433;-82
2022/04/18 07:59:10;;;;;;;5.05;2.70;;;;;;;11.83;42.70;100087.47;12212913;19;20019;-83
2022/04/18 08:03:16;;;;;;;3.65;2.15;;;;;;;12.11;43.10;100085.75;12189811;19;20023;-82
2022/04/18 08:07:26;;;;;;;6.63;2.90;;;;;;;12.28;41.94;100089.31;12197301;19;20118;-81
2022/04/18 08:11:28;;;;;;;4.65;2.22;;;;;;;12.52;41.96;100094.59;12191223;19;20494;-80
2022/04/18 08:15:32;;;;;;;6.67;2.70;;;;;;;12.63;41.62;100092.81;12208854;19;20122;-82
2022/04/18 08:19:35;;;;;;;4.65;2.10;;;;;;;12.84;41.70;100099.44;12220052;19;20271;-82
2022/04/18 08:23:37;;;;;;;5.45;3.08;;;;;;;12.95;41.24;100104.00;12196333;19;20006;-82
2022/04/18 08:27:58;;;;;;;6.18;2.83;;;;;;;13.06;40.71;100100.28;12217829;19;20296;-81
2022/04/18 08:32:08;;;;;;;13.00;2.45;;;;;;;13.36;40.88;100101.72;12210670;19;20021;-81
2022/04/18 08:36:09;;;;;;;6.78;3.05;;;;;;;13.60;40.57;100103.06;12189128;19;20007;-83
2022/04/18 08:40:11;;;;;;;4.07;2.63;;;;;;;13.78;40.25;100098.25;12214999;19;20014;-82
2022/04/18 08:44:15;;;;;;;10.18;3.53;;;;;;;13.84;39.72;100092.47;12215769;19;20109;-82
2022/04/18 08:52:45;;;;;;;4.50;2.50;;;;;;;14.31;37.16;100090.88;12217278;19;20014;-82
2022/04/18 08:57:16;;;;;;;6.38;2.75;;;;;;;14.58;37.28;100077.75;12195153;19;20055;-81
2022/04/18 09:01:18;;;;;;;3.90;2.17;;;;;;;14.80;37.27;100087.81;12219445;19;20014;-81
2022/04/18 09:05:38;;;;;;;6.55;2.88;;;;;;;14.89;35.74;100086.19;12192708;19;20011;-83
2022/04/18 09:09:41;;;;;;;7.03;2.58;;;;;;;15.09;35.60;100079.06;12215356;19;20128;-81
2022/04/18 09:13:57;;;;;;;4.75;2.88;;;;;;;15.25;34.66;100077.97;12212841;19;20014;-81
2022/04/18 09:18:15;;;;;;;5.65;2.80;;;;;;;15.25;34.19;100070.47;12197517;19;20013;-80
2022/04/18 09:22:42;;;;;;;7.15;3.00;;;;;;;15.29;33.75;100073.56;12216194;19;20039;-80
2022/04/18 09:26:44;;;;;;;5.72;2.50;;;;;;;15.64;34.58;100069.13;12194895;19;20115;-81
2022/04/18 09:30:55;;;;;;;2.67;1.83;;;;;;;15.77;33.13;100062.25;12220890;19;20075;-80
2022/04/18 09:35:04;;;;;;;4.07;2.58;;;;;;;15.76;32.43;100066.94;12213427;19;20010;-81
2022/04/18 09:39:22;;;;;;;5.30;2.25;;;;;;;15.94;32.99;100062.75;12197489;19;20074;-81
2022/04/18 09:43:43;;;;;;;5.57;2.17;;;;;;;16.13;31.65;100054.69;12224678;19;20014;-83
2022/04/18 09:48:00;;;;;;;3.85;1.85;;;;;;;16.12;31.71;100056.66;12198393;19;20015;-82
2022/04/18 09:52:02;;;;;;;4.95;1.92;;;;;;;16.39;31.82;100049.91;12234761;19;20018;-81
2022/04/18 09:56:04;;;;;;;4.80;2.70;;;;;;;16.58;32.07;100050.94;12218740;19;20007;-81
2022/04/18 10:00:06;;;;;;;7.47;2.80;;;;;;;16.51;32.02;100044.00;12197785;19;20018;-81
2022/04/18 10:04:12;;;;;;;5.28;2.30;;;;;;;16.39;31.94;100038.78;12227471;19;20007;-82
2022/04/18 10:08:18;;;;;;;3.38;1.73;;;;;;;16.58;31.18;100027.88;12247653;19;20006;-83
2022/04/18 10:12:22;;;;;;;5.20;2.55;;;;;;;16.80;31.25;100031.09;12226845;19;20040;-84
2022/04/18 10:16:28;;;;;;;4.57;2.17;;;;;;;16.73;31.17;100018.63;12196534;19;20014;-81
2022/04/18 10:20:51;;;;;;;5.55;2.45;;;;;;;17.04;31.03;100027.66;12187106;19;20007;-82
2022/04/18 10:25:36;;;;;;;4.75;2.17;;;;;;;17.09;30.43;100022.06;12226888;19;20018;-81
2022/04/18 10:29:51;;;;;;;5.75;2.30;;;;;;;17.00;29.83;100012.66;12196735;19;20401;-81
2022/04/18 10:33:56;;;;;;;4.22;2.60;;;;;;;16.99;29.51;100005.44;12235448;19;20014;-80
2022/04/18 10:38:02;;;;;;;4.13;2.28;;;;;;;17.11;30.17;100000.34;12215655;19;20007;-80
2022/04/18 10:42:20;;;;;;;3.92;2.40;;;;;;;17.22;30.39;99993.59;12188763;19;20026;-81
2022/04/18 10:46:22;;;;;;;6.55;2.15;;;;;;;17.59;30.41;99981.03;12217758;19;20037;-81
2022/04/18 10:50:26;;;;;;;3.92;2.05;;;;;;;17.75;30.09;99976.13;12199122;19;20013;-80
2022/04/18 10:54:29;;;;;;;4.07;2.10;;;;;;;17.94;29.86;99973.47;12208130;19;20014;-82
2022/04/18 10:58:37;;;;;;;4.13;1.98;;;;;;;18.06;29.07;99985.06;12210001;19;20456;-78
2022/04/18 11:02:43;;;;;;;2.88;1.95;;;;;;;17.96;29.49;99980.38;12186007;19;20011;-82
2022/04/18 11:06:48;;;;;;;3.45;1.80;;;;;;;18.10;29.17;99968.56;12208425;19;20007;-82
2022/04/18 11:10:49;;;;;;;3.92;1.77;;;;;;;18.26;28.93;99966.41;12205859;19;20020;-82
2022/04/18 11:15:02;;;;;;;3.10;1.77;;;;;;;18.41;29.04;99961.50;12177793;19;20117;-80
2022/04/18 11:19:06;;;;;;;3.30;1.90;;;;;;;18.60;28.60;99967.09;12207024;19;20129;-79
2022/04/18 11:23:18;;;;;;;3.72;2.00;;;;;;;18.56;28.41;99960.47;12205610;19;20074;-80
2022/04/18 11:27:27;;;;;;;3.85;1.60;;;;;;;18.64;28.51;99956.97;12173812;19;20021;-79
2022/04/18 11:31:30;;;;;;;4.53;2.10;;;;;;;18.76;28.31;99941.78;12208145;19;20023;-78
2022/04/18 11:35:33;;;;;;;4.50;2.33;;;;;;;18.98;28.06;99944.00;12178593;19;20033;-80
2022/04/18 11:39:46;;;;;;;4.07;1.80;;;;;;;19.04;27.49;99937.19;12203417;19;20363;-80
2022/04/18 11:43:56;;;;;;;2.28;1.52;;;;;;;19.44;26.78;99929.28;12199409;19;20376;-81
2022/04/18 11:47:58;;;;;;;4.15;1.80;;;;;;;20.01;27.30;99916.75;12197920;19;20668;-80
2022/04/18 11:52:00;;;;;;;7.47;2.13;;;;;;;20.68;26.53;99912.59;12226390;19;20014;-81
2022/04/18 11:56:03;;;;;;;3.38;2.05;;;;;;;21.44;26.24;99917.50;12212872;19;20007;-80
2022/04/18 12:00:11;;;;;;;4.47;1.77;;;;;;;21.78;24.84;99908.47;12198083;19;20010;-80
2022/04/18 12:08:33;;;;;;;2.33;1.50;;;;;;;22.09;24.20;99900.00;12201265;19;20007;-78
2022/04/18 12:12:38;;;;;;;3.90;1.95;;;;;;;22.34;23.88;99889.22;12212593;19;20031;-80
2022/04/18 12:16:41;;;;;;;3.23;1.67;;;;;;;22.56;22.74;99880.66;12227831;19;20010;-85
2022/04/18 12:20:44;;;;;;;;;;;;;;;22.68;22.98;99878.03;12198128;19;19999;-82
2022/04/18 12:24:46;;;;;;;;;;;;;;;23.14;22.29;99878.56;12230073;19;20107;-83
2022/04/18 12:28:48;;;;;;;5.88;1.92;;;;;;;23.20;21.81;99872.44;12218088;19;19917;-83
2022/04/18 12:32:50;;;;;;;2.45;1.60;;;;;;;23.57;21.42;99863.59;12195922;19;20023;-85
2022/04/18 12:36:55;;;;;;;;;;;;;;;23.80;21.96;99861.41;12210660;19;20064;-83
2022/04/18 12:40:59;;;;;;;5.72;1.75;;;;;;;24.59;21.11;99850.53;12214710;19;19906;-82
2022/04/18 12:45:00;;;;;;;3.83;1.90;;;;;;;24.60;20.68;99849.34;12184816;19;20044;-82
2022/04/18 12:49:08;;;;;;;3.50;2.13;;;;;;;25.46;20.53;99840.13;12215129;19;20035;-84
2022/04/18 12:53:10;;;;;;;3.85;1.88;;;;;;;26.00;19.90;99836.34;12204853;19;20011;-83
2022/04/18 12:57:20;;;;;;;3.22;1.88;;;;;;;25.98;19.06;99838.69;12182133;19;20025;-82
2022/04/18 13:01:26;;;;;;;4.47;1.70;;;;;;;26.05;18.49;99826.78;12194124;19;20491;-83
2022/04/18 13:05:33;;;;;;;3.30;1.30;;;;;;;26.77;18.41;99819.41;12189708;19;20011;-84
2022/04/18 13:09:36;;;;;;;3.05;1.75;;;;;;;27.31;18.12;99820.09;12207854;19;21623;-84
2022/04/18 13:13:38;;;;;;;3.00;1.85;;;;;;;26.81;18.07;99811.84;12208850;19;20003;-83
2022/04/18 13:17:59;;;;;;;;;;;;;;;26.93;18.29;99812.97;12188701;19;20679;-83
2022/04/18 13:22:02;;;;;;;5.72;1.92;;;;;;;27.49;18.11;99790.31;12217516;19;19918;-83
2022/04/18 13:26:04;;;;;;;3.08;1.85;;;;;;;28.15;17.82;99786.69;12216992;19;20019;-84
2022/04/18 13:30:07;;;;;;;3.10;2.00;;;;;;;28.63;17.63;99793.06;12184739;19;20023;-84
2022/04/18 13:34:09;;;;;;;3.97;2.13;;;;;;;28.46;17.22;99776.47;12210315;19;20701;-82
2022/04/18 13:38:10;;;;;;;;;;;;;;;28.11;17.05;99777.31;12203195;19;20029;-82
2022/04/18 13:42:12;;;;;;;4.63;2.30;;;;;;;28.99;17.18;99764.63;12189272;19;20390;-84
2022/04/18 13:46:14;;;;;;;2.75;1.98;;;;;;;28.56;16.45;99755.25;12197762;19;20010;-81
2022/04/18 13:50:16;;;;;;;3.15;1.70;;;;;;;29.09;16.73;99764.03;12211592;19;20100;-84
2022/04/18 13:54:19;;;;;;;3.55;1.70;;;;;;;29.40;16.81;99760.16;12185662;19;20022;-83
2022/04/18 13:58:21;;;;;;;4.28;2.15;;;;;;;27.74;17.11;99748.47;12199000;19;20010;-88
2022/04/18 14:02:22;;;;;;;;;;;;;;;26.16;18.23;99745.25;12192006;19;20102;-84
2022/04/18 14:06:26;;;;;;;2.78;1.50;;;;;;;24.56;19.12;99745.81;12204318;19;19911;-85
2022/04/18 14:10:28;;;;;;;5.70;1.73;;;;;;;23.83;19.57;99742.53;12207845;19;20006;-87
2022/04/18 14:23:13;;;;;;;3.40;1.63;;;;;;;21.96;20.94;99732.63;12216843;19;20082;-83
2022/04/18 14:27:15;;;;;;;3.10;1.57;;;;;;;21.01;22.71;99728.31;12187434;19;20007;-85
2022/04/18 14:31:17;;;;;;;2.50;1.50;;;;;;;20.88;22.54;99724.47;12212631;19;20695;-86
2022/04/18 14:35:26;;;;;;;3.58;1.67;;;;;;;21.11;22.26;99718.78;12193964;19;20015;-85
2022/04/18 14:39:28;;;;;;;2.73;1.97;;;;;;;21.05;22.14;99708.88;12220867;19;20363;-87
2022/04/18 14:43:32;;;;;;;3.60;1.40;;;;;;;21.10;22.27;99700.34;12219856;19;20014;-86
2022/04/18 14:47:34;;;;;;;3.47;1.57;;;;;;;20.97;22.69;99707.72;12186801;19;20034;-83
2022/04/18 14:51:36;;;;;;;4.82;1.45;;;;;;;21.09;22.60;99698.66;12208697;19;20035;-83
2022/04/18 14:55:38;;;;;;;4.10;1.47;;;;;;;21.70;22.08;99691.31;12216274;19;20105;-83
2022/04/18 14:59:40;;;;;;;3.88;1.60;;;;;;;21.92;22.23;99697.94;12194532;19;20007;-85
2022/04/18 15:03:43;;;;;;;2.67;1.40;;;;;;;21.54;22.51;99695.75;12207051;19;20014;-83
2022/04/18 15:07:44;;;;;;;2.67;1.50;;;;;;;20.94;23.03;99681.16;12216575;19;20006;-83
2022/04/18 15:11:46;;;;;;;3.15;1.63;;;;;;;20.64;23.30;99682.81;12179683;19;20002;-82
2022/04/18 15:15:48;;;;;;;1.92;1.30;;;;;;;20.44;23.53;99681.34;12210886;19;20014;-82
2022/04/18 15:19:49;;;;;;;2.42;1.30;;;;;;;20.22;23.67;99678.53;12203338;19;20572;-83
2022/04/18 15:23:52;;;;;;;3.47;1.40;;;;;;;19.51;23.73;99662.25;12193114;19;20023;-85
2022/04/18 15:27:54;;;;;;;3.00;1.30;;;;;;;19.42;24.13;99669.69;12209816;19;20007;-82
2022/04/18 15:32:08;;;;;;;3.70;1.45;;;;;;;19.24;24.90;99665.06;12203784;19;20010;-82
2022/04/18 15:36:09;;;;;;;2.67;1.33;;;;;;;19.08;24.28;99670.13;12174311;19;20015;-82
2022/04/18 15:40:11;;;;;;;2.03;1.10;;;;;;;19.19;24.17;99659.59;12206720;19;20030;-82
2022/04/18 15:44:13;;;;;;;2.97;1.50;;;;;;;19.20;24.26;99664.84;12199988;19;20014;-82
2022/04/18 15:48:15;;;;;;;11.48;1.50;;;;;;;19.06;24.95;99662.06;12179409;19;20010;-82
2022/04/18 15:52:17;;;;;;;3.10;1.57;;;;;;;19.05;24.95;99654.00;12210624;19;20007;-82
2022/04/18 15:56:20;;;;;;;3.03;1.10;;;;;;;19.36;24.67;99654.19;12193085;19;20032;-82
2022/04/18 16:00:22;;;;;;;2.67;1.43;;;;;;;19.76;24.21;99651.66;12187363;19;20013;-81
2022/04/18 16:04:23;;;;;;;3.20;1.27;;;;;;;20.12;23.56;99648.84;12206584;19;20010;-82
2022/04/18 16:08:25;;;;;;;3.30;1.52;;;;;;;20.00;24.64;99649.41;12183131;19;20023;-82
2022/04/18 16:12:27;;;;;;;2.50;1.25;;;;;;;19.63;24.16;99641.28;12204246;19;20031;-81
2022/04/18 16:16:32;;;;;;;4.38;1.20;;;;;;;19.82;23.92;99642.00;12197498;19;20513;-81
2022/04/18 16:20:34;;;;;;;4.10;2.30;;;;;;;20.27;24.03;99650.44;12182061;19;20011;-82
2022/04/18 16:24:40;;;;;;;3.78;1.60;;;;;;;20.07;23.57;99639.75;12210426;19;20018;-81
2022/04/18 16:28:42;;;;;;;2.28;1.33;;;;;;;20.67;23.43;99630.94;12208037;19;20007;-82
2022/04/18 16:32:43;;;;;;;4.90;1.63;;;;;;;21.20;23.29;99630.00;12195332;19;20209;-82
2022/04/18 16:36:47;;;;;;;2.15;1.35;;;;;;;21.08;23.33;99629.78;12215661;19;20428;-83
2022/04/18 16:49:30;;;;;;;1.90;1.13;;;;;;;20.49;23.38;99619.63;12221269;19;20015;-82
2022/04/18 16:53:32;;;;;;;2.27;1.47;;;;;;;20.88;23.48;99608.78;12199046;19;20011;-82
2022/04/18 16:57:53;;;;;;;2.35;1.13;;;;;;;20.79;23.54;99617.19;12207616;19;20017;-82
2022/04/18 17:01:55;;;;;;;1.73;1.40;;;;;;;20.06;24.25;99618.50;12224028;19;20010;-81
2022/04/18 17:06:00;;;;;;;1.90;1.20;;;;;;;19.84;24.52;99608.97;12194329;19;20025;-83
2022/04/18 17:10:13;;;;;;;2.58;1.20;;;;;;;19.84;24.85;99602.53;12222939;19;20003;-83
2022/04/18 17:14:54;;;;;;;2.00;1.15;;;;;;;19.84;25.59;99611.78;12218918;19;20058;-83
2022/04/18 17:18:55;;;;;;;2.00;1.10;;;;;;;19.67;25.90;99606.84;12256424;19;20018;-83
2022/04/18 17:22:57;;;;;;;2.15;1.60;;;;;;;19.55;25.52;99606.56;12261094;19;20034;-81
2022/04/18 17:27:01;;;;;;;4.45;1.40;;;;;;;19.38;25.82;99603.59;12218513;19;20047;-82
2022/04/18 17:31:36;;;;;;;2.20;1.10;;;;;;;19.05;26.28;99601.75;12228325;19;20003;-82
2022/04/18 17:35:38;;;;;;;7.70;1.75;;;;;;;18.95;26.82;99602.00;12197370;19;20007;-83
2022/04/18 17:39:39;;;;;;;3.15;1.30;;;;;;;18.91;27.92;99600.94;12229780;19;20010;-82
2022/04/18 17:43:41;;;;;;;4.13;1.67;;;;;;;19.22;28.49;99603.94;12232979;19;20010;-83
2022/04/18 17:47:44;;;;;;;2.80;1.30;;;;;;;19.56;28.79;99613.78;12222151;19;20029;-80
2022/04/18 17:51:46;;;;;;;2.00;1.02;;;;;;;20.04;28.93;99618.81;12255363;19;20011;-79
2022/04/18 17:55:48;;;;;;;1.90;1.10;;;;;;;20.36;29.14;99611.31;12257303;19;20018;-80
2022/04/18 17:59:50;;;;;;;3.78;1.15;;;;;;;19.54;29.48;99616.06;12224963;19;20021;-81
2022/04/18 18:03:52;;;;;;;2.08;1.10;;;;;;;18.39;31.09;99608.63;12246021;19;20026;-81
2022/04/18 18:07:54;;;;;;;2.60;1.20;;;;;;;17.51;32.88;99611.13;12253628;19;20015;-81
2022/04/18 18:11:58;;;;;;;3.20;1.40;;;;;;;16.82;33.85;99621.75;12228002;19;20022;-80
2022/04/18 18:16:00;;;;;;;1.88;1.27;;;;;;;16.21;34.57;99623.19;12239750;19;20636;-80
2022/04/18 18:20:07;;;;;;;4.00;2.30;;;;;;;15.71;35.47;99626.09;12244950;19;20010;-86
2022/04/18 18:24:09;;;;;;;3.65;1.33;;;;;;;15.28;36.00;99622.13;12198900;19;20006;-84
2022/04/18 18:28:11;;;;;;;1.80;1.13;;;;;;;14.89;36.50;99614.53;12210775;19;20019;-85
2022/04/18 18:32:12;;;;;;;3.97;1.30;;;;;;;14.54;36.88;99615.47;12214001;19;20275;-83
2022/04/18 18:36:17;;;;;;;2.03;1.10;;;;;;;14.22;37.14;99618.53;12191914;19;20014;-83
2022/04/18 18:40:19;;;;;;;3.08;1.33;;;;;;;13.94;37.68;99629.09;12204825;19;20017;-83
2022/04/18 18:44:21;;;;;;;2.45;1.35;;;;;;;13.70;37.84;99620.47;12222117;19;20014;-82
2022/04/18 18:48:35;;;;;;;2.92;1.30;;;;;;;13.48;37.90;99628.22;12191169;19;20049;-82
2022/04/18 18:52:37;;;;;;;2.00;1.40;;;;;;;13.25;38.07;99624.81;12214504;19;20014;-84
2022/04/18 18:56:39;;;;;;;2.22;1.33;;;;;;;13.08;38.65;99632.47;12186156;19;20725;-83
2022/04/18 19:00:41;;;;;;;3.78;1.23;;;;;;;12.92;39.04;99643.47;12206100;19;20393;-86
2022/04/18 19:04:42;;;;;;;2.37;1.20;;;;;;;12.75;38.96;99649.19;12205841;19;20029;-86
2022/04/18 19:08:46;;;;;;;2.85;1.33;;;;;;;12.58;39.16;99651.28;12184091;19;20504;-83
2022/04/18 19:12:48;;;;;;;1.73;1.00;;;;;;;12.45;38.94;99654.53;12204213;19;20353;-82
2022/04/18 19:29:51;;;;;;;2.92;1.70;;;;;;;12.04;39.92;99645.94;12193318;19;20010;-84
2022/04/18 19:33:58;;;;;;;3.93;1.60;;;;;;;11.96;40.36;99641.75;12217993;19;20003;-85
2022/04/18 19:38:06;;;;;;;2.65;1.58;;;;;;;11.91;40.58;99647.22;12212186;19;20254;-83
2022/04/18 19:42:08;;;;;;;4.20;1.90;;;;;;;11.86;40.88;99647.16;12187326;19;20014;-83
2022/04/18 19:46:13;;;;;;;2.30;1.02;;;;;;;11.81;41.51;99641.59;12209958;19;20364;-84
2022/04/18 19:50:19;;;;;;;4.50;1.20;;;;;;;11.76;41.61;99642.34;12208545;19;20014;-84
2022/04/18 19:59:01;;;;;;;4.43;1.13;;;;;;;11.65;42.11;99635.06;12206030;19;20011;-83
2022/04/18 20:12:54;;;;;;;3.50;1.55;;;;;;;11.41;43.26;99635.38;12204807;19;20056;-84